Time;durP1;ratioP1;P1;durP2;ratioP2;P2;SDS_P1;SDS_P2;PMS_P1;PMS_P2;Temp;Humidity;BMP_temperature;BMP_pressure;BME280_temperature;BME280_humidity;BME280_pressure;Samples;Min_cycle;Max_cycle;Signal;HPM_P1;HPM_P2
2023/12/15 00:00:16;;;;;;;34.67;10.15;;;4.80;99.90;;;;;;5045003;28;20162;-83
2023/12/15 00:02:42;;;;;;;35.30;10.55;;;4.90;99.90;;;;;;5044433;28;20297;-83
2023/12/15 00:05:08;;;;;;;37.87;10.33;;;4.90;99.90;;;;;;5026178;28;20217;-83
2023/12/15 00:07:34;;;;;;;36.97;9.80;;;4.90;99.90;;;;;;5026142;28;20424;-83
2023/12/15 00:10:00;;;;;;;37.27;10.13;;;4.90;99.90;;;;;;5043317;28;20516;-83
2023/12/15 00:12:25;;;;;;;35.73;10.53;;;4.90;99.90;;;;;;5044035;28;20168;-83
2023/12/15 00:14:51;;;;;;;37.57;10.87;;;4.90;99.90;;;;;;5043602;28;20194;-83
2023/12/15 00:17:17;;;;;;;33.57;9.67;;;4.90;99.90;;;;;;5043802;28;20230;-83
2023/12/15 00:19:44;;;;;;;38.40;11.80;;;5.00;99.90;;;;;;5043542;28;20643;-83
2023/12/15 00:22:09;;;;;;;38.75;11.32;;;5.10;99.90;;;;;;5044277;28;20177;-82
2023/12/15 00:24:35;;;;;;;39.60;12.50;;;5.10;99.90;;;;;;5042888;28;20186;-83
2023/12/15 00:27:01;;;;;;;40.80;12.27;;;5.10;99.90;;;;;;5044044;28;20173;-83
2023/12/15 00:29:29;;;;;;;37.70;10.50;;;5.20;99.90;;;;;;5043946;28;20521;-83
2023/12/15 00:31:55;;;;;;;39.55;11.38;;;5.20;99.90;;;;;;5025913;28;20270;-83
2023/12/15 00:34:20;;;;;;;38.40;12.33;;;5.20;99.90;;;;;;5043247;28;20186;-83
2023/12/15 00:36:46;;;;;;;38.57;12.40;;;5.20;99.90;;;;;;5044516;28;20162;-83
2023/12/15 00:39:12;;;;;;;36.97;12.07;;;5.20;99.90;;;;;;5043290;28;20165;-83
2023/12/15 00:41:40;;;;;;;37.57;12.50;;;5.20;99.90;;;;;;5043639;28;20177;-82
2023/12/15 00:44:06;;;;;;;36.80;12.55;;;5.20;99.90;;;;;;5043300;28;20196;-83
2023/12/15 00:46:32;;;;;;;38.47;12.00;;;5.20;99.90;;;;;;5043548;28;20161;-83
2023/12/15 00:48:58;;;;;;;41.38;12.60;;;5.20;99.90;;;;;;5043130;28;20182;-83
2023/12/15 00:51:23;;;;;;;42.53;13.53;;;5.20;99.90;;;;;;5043299;28;20180;-82
2023/12/15 00:53:49;;;;;;;37.90;12.07;;;5.30;99.90;;;;;;5043746;28;20905;-82
2023/12/15 00:56:15;;;;;;;34.43;11.37;;;5.30;99.90;;;;;;5026812;28;20169;-82
2023/12/15 00:58:40;;;;;;;40.53;12.30;;;5.30;99.90;;;;;;5043118;28;20170;-85
2023/12/15 01:01:06;;;;;;;44.83;14.17;;;5.30;99.90;;;;;;5044223;28;20173;-85
2023/12/15 01:03:32;;;;;;;35.97;11.75;;;5.30;99.90;;;;;;5026109;28;20173;-85
2023/12/15 01:05:58;;;;;;;36.73;11.60;;;5.30;99.90;;;;;;5043420;28;20216;-85
2023/12/15 01:08:24;;;;;;;42.20;13.20;;;5.30;99.90;;;;;;5042331;28;20197;-83
2023/12/15 01:10:50;;;;;;;35.65;11.13;;;5.40;99.90;;;;;;5025792;28;20952;-82
2023/12/15 01:13:16;;;;;;;36.75;11.98;;;5.40;99.90;;;;;;5026213;28;20170;-82
2023/12/15 01:15:41;;;;;;;37.50;11.90;;;5.40;99.90;;;;;;5043877;28;20192;-83
2023/12/15 01:18:07;;;;;;;42.70;13.20;;;5.30;99.90;;;;;;5043329;28;20200;-83
2023/12/15 01:20:33;;;;;;;40.13;13.33;;;5.30;99.90;;;;;;5043873;28;20166;-83
2023/12/15 01:22:59;;;;;;;41.90;13.50;;;5.30;99.90;;;;;;5043198;28;20161;-85
2023/12/15 01:25:24;;;;;;;37.65;11.40;;;5.40;99.90;;;;;;5041656;28;20181;-85
2023/12/15 01:27:50;;;;;;;44.90;12.10;;;5.40;99.90;;;;;;5043017;28;20205;-85
2023/12/15 01:30:16;;;;;;;41.13;11.50;;;5.40;99.90;;;;;;5043357;28;20185;-83
2023/12/15 01:32:41;;;;;;;43.03;12.73;;;5.30;99.90;;;;;;5025295;28;20416;-83
2023/12/15 01:35:07;;;;;;;40.50;12.07;;;5.40;99.90;;;;;;5044123;28;20186;-82
2023/12/15 01:37:33;;;;;;;37.08;12.50;;;5.40;99.90;;;;;;5043072;28;20162;-83
2023/12/15 01:39:59;;;;;;;40.20;12.07;;;5.40;99.90;;;;;;5025772;28;20215;-83
2023/12/15 01:42:26;;;;;;;40.00;12.80;;;5.40;99.90;;;;;;5043590;28;20165;-83
2023/12/15 01:44:52;;;;;;;38.42;12.50;;;5.40;99.90;;;;;;5025363;28;20420;-83
2023/12/15 01:47:18;;;;;;;38.13;13.10;;;5.40;99.90;;;;;;5043486;28;20167;-83
2023/12/15 01:49:46;;;;;;;40.83;14.32;;;5.40;99.90;;;;;;5043247;28;20182;-83
2023/12/15 01:52:12;;;;;;;36.22;11.35;;;5.50;99.90;;;;;;5025690;28;20202;-83
2023/12/15 01:54:38;;;;;;;39.07;12.97;;;5.50;99.90;;;;;;5043512;28;20193;-83
2023/12/15 01:57:04;;;;;;;37.60;12.00;;;5.40;99.90;;;;;;5043593;28;20412;-83
2023/12/15 01:59:48;;;;;;;36.72;12.10;;;5.50;99.90;;;;;;5042854;28;20408;-83
2023/12/15 02:02:15;;;;;;;44.95;14.32;;;5.50;99.90;;;;;;5042551;28;20183;-82
2023/12/15 02:04:40;;;;;;;40.50;14.27;;;5.60;99.90;;;;;;5044897;28;20189;-83
2023/12/15 02:07:07;;;;;;;37.20;12.90;;;5.50;99.90;;;;;;5027605;28;20184;-83
2023/12/15 02:09:33;;;;;;;49.13;14.35;;;5.50;99.90;;;;;;5045950;28;20220;-82
2023/12/15 02:12:02;;;;;;;41.70;14.30;;;5.50;99.90;;;;;;5027945;28;20166;-83
2023/12/15 02:14:29;;;;;;;44.85;13.63;;;5.40;99.90;;;;;;5046194;28;20213;-83
2023/12/15 02:16:54;;;;;;;44.90;14.68;;;5.40;99.90;;;;;;5045777;28;20240;-83
2023/12/15 02:19:20;;;;;;;43.80;14.40;;;5.40;99.90;;;;;;5046189;28;20174;-83
2023/12/15 02:21:46;;;;;;;42.93;14.47;;;5.40;99.90;;;;;;5045674;28;20189;-83
2023/12/15 02:24:11;;;;;;;41.30;14.20;;;5.40;99.90;;;;;;5045766;28;20687;-83
2023/12/15 02:26:37;;;;;;;41.63;14.07;;;5.40;99.90;;;;;;5046024;28;20174;-82
2023/12/15 02:29:03;;;;;;;44.97;13.93;;;5.40;99.90;;;;;;5045874;28;20217;-83
2023/12/15 02:31:28;;;;;;;36.70;10.73;;;5.50;99.90;;;;;;5046193;28;20166;-82
2023/12/15 02:33:55;;;;;;;48.07;14.43;;;5.60;99.90;;;;;;5046919;28;20186;-83
2023/12/15 02:36:22;;;;;;;49.47;15.10;;;5.50;99.90;;;;;;5045543;28;20158;-83
2023/12/15 02:38:48;;;;;;;42.08;13.65;;;5.60;99.90;;;;;;5027618;28;20174;-83
2023/12/15 02:41:14;;;;;;;45.77;14.63;;;5.60;99.90;;;;;;5046635;28;20197;-82
2023/12/15 02:43:40;;;;;;;42.07;13.87;;;5.60;99.90;;;;;;5046315;28;20420;-83
2023/12/15 02:46:06;;;;;;;40.63;14.20;;;5.60;99.90;;;;;;5046209;28;20170;-83
2023/12/15 02:48:32;;;;;;;41.85;12.40;;;5.60;99.90;;;;;;5027934;28;20456;-83
2023/12/15 02:50:58;;;;;;;44.13;14.77;;;5.50;99.90;;;;;;5028633;28;20680;-83
2023/12/15 02:53:24;;;;;;;39.67;13.00;;;5.50;99.90;;;;;;5046498;28;20170;-83
2023/12/15 02:55:49;;;;;;;43.97;13.23;;;5.60;99.90;;;;;;5044076;28;20190;-83
2023/12/15 02:58:18;;;;;;;44.10;13.73;;;5.60;99.90;;;;;;5045982;28;20165;-83
2023/12/15 03:00:44;;;;;;;40.85;13.70;;;5.60;99.90;;;;;;5046134;28;20166;-83
2023/12/15 03:03:10;;;;;;;39.80;13.87;;;5.60;99.90;;;;;;5045926;28;20169;-83
2023/12/15 03:05:35;;;;;;;40.80;12.50;;;5.60;99.90;;;;;;5027725;28;20810;-83
2023/12/15 03:08:02;;;;;;;37.40;11.80;;;5.60;99.90;;;;;;5027525;28;20217;-83
2023/12/15 03:10:28;;;;;;;37.53;11.32;;;5.60;99.90;;;;;;5045390;28;20170;-82
2023/12/15 03:12:53;;;;;;;40.37;12.47;;;5.70;99.90;;;;;;5044376;28;20182;-83
2023/12/15 03:15:19;;;;;;;39.53;12.50;;;5.60;99.90;;;;;;5045279;28;20933;-83
2023/12/15 03:17:45;;;;;;;35.00;10.77;;;5.60;99.90;;;;;;5026684;28;20405;-83
2023/12/15 03:20:10;;;;;;;41.83;12.30;;;5.70;99.90;;;;;;5043534;28;20186;-83
2023/12/15 03:22:37;;;;;;;44.43;12.20;;;5.70;99.90;;;;;;5043290;28;20214;-83
2023/12/15 03:25:07;;;;;;;40.45;11.18;;;5.70;99.90;;;;;;5026113;28;20186;-83
2023/12/15 03:27:32;;;;;;;39.83;12.57;;;5.70;99.90;;;;;;5043124;28;20220;-83
2023/12/15 03:29:59;;;;;;;40.67;12.33;;;5.60;99.90;;;;;;5043586;28;20181;-83
2023/12/15 03:32:24;;;;;;;38.63;11.00;;;5.60;99.90;;;;;;5042747;28;20158;-83
2023/12/15 03:34:50;;;;;;;38.90;10.43;;;5.60;99.90;;;;;;5024424;28;20312;-83
2023/12/15 03:37:16;;;;;;;37.60;12.03;;;5.60;99.90;;;;;;5042318;28;20205;-82
2023/12/15 03:39:42;;;;;;;40.78;12.40;;;5.70;99.90;;;;;;5041965;28;20221;-83
2023/12/15 03:42:08;;;;;;;38.47;11.43;;;5.70;99.90;;;;;;5042123;28;20188;-83
2023/12/15 03:44:39;;;;;;;42.47;11.30;;;5.70;99.90;;;;;;5025635;28;20428;-83
2023/12/15 03:47:08;;;;;;;40.42;10.68;;;5.70;99.90;;;;;;5042448;28;20493;-83
2023/12/15 03:49:35;;;;;;;35.90;10.60;;;5.70;99.90;;;;;;5024703;28;20606;-83
2023/12/15 03:52:01;;;;;;;40.17;11.85;;;5.70;99.90;;;;;;5023866;28;20197;-83
2023/12/15 03:54:26;;;;;;;40.23;10.70;;;5.70;99.90;;;;;;5042117;28;20185;-82
2023/12/15 03:56:59;;;;;;;38.03;11.03;;;5.80;99.90;;;;;;5024560;28;20427;-83
2023/12/15 03:59:25;;;;;;;38.35;9.32;;;5.80;99.90;;;;;;5042234;28;20188;-83
2023/12/15 04:01:51;;;;;;;39.10;10.73;;;5.80;99.90;;;;;;5042445;28;20185;-83
2023/12/15 04:04:17;;;;;;;39.67;11.32;;;5.80;99.90;;;;;;5043156;28;20193;-83
2023/12/15 04:06:43;;;;;;;36.33;9.52;;;5.80;99.90;;;;;;5042705;28;20198;-83
2023/12/15 04:09:09;;;;;;;40.50;10.63;;;5.90;99.90;;;;;;5042746;28;20198;-83
2023/12/15 04:11:36;;;;;;;38.72;11.70;;;5.90;99.90;;;;;;5042856;28;20495;-83
2023/12/15 04:14:02;;;;;;;40.42;11.10;;;5.90;99.90;;;;;;5042113;28;20659;-83
2023/12/15 04:16:28;;;;;;;38.33;10.95;;;5.90;99.90;;;;;;5024494;28;20168;-83
2023/12/15 04:18:53;;;;;;;37.80;11.00;;;5.90;99.90;;;;;;5043011;28;20197;-83
2023/12/15 04:21:19;;;;;;;38.90;10.60;;;5.90;99.90;;;;;;5041893;28;20178;-83
2023/12/15 04:23:45;;;;;;;38.37;11.60;;;5.90;99.90;;;;;;5041515;28;20643;-83
2023/12/15 04:26:10;;;;;;;38.30;10.33;;;5.90;99.90;;;;;;5041854;28;20162;-83
2023/12/15 04:28:39;;;;;;;37.63;10.40;;;5.90;99.90;;;;;;5041478;28;20194;-83
2023/12/15 04:31:05;;;;;;;33.83;10.90;;;5.90;99.90;;;;;;5042092;28;20181;-83
2023/12/15 04:33:31;;;;;;;39.83;10.20;;;6.00;99.90;;;;;;5024028;28;20639;-83
2023/12/15 04:35:56;;;;;;;36.40;9.00;;;5.90;99.90;;;;;;5042068;28;20189;-82
2023/12/15 04:38:22;;;;;;;36.77;9.70;;;5.90;99.90;;;;;;5024218;28;20262;-83
2023/12/15 04:40:49;;;;;;;36.93;8.60;;;6.00;99.90;;;;;;5041994;28;20188;-83
2023/12/15 04:43:15;;;;;;;33.72;10.25;;;6.00;99.90;;;;;;5041579;28;20181;-82
2023/12/15 04:45:40;;;;;;;34.03;8.80;;;5.90;99.90;;;;;;5042898;28;20186;-83
2023/12/15 04:48:06;;;;;;;34.23;8.93;;;6.00;99.90;;;;;;5041984;28;20189;-81
2023/12/15 04:50:32;;;;;;;31.90;7.70;;;6.00;99.90;;;;;;5041559;28;20166;-81
2023/12/15 04:52:57;;;;;;;33.47;8.60;;;6.00;99.90;;;;;;5041097;28;20534;-81
2023/12/15 04:55:23;;;;;;;38.43;10.33;;;6.00;99.90;;;;;;5040923;28;20182;-82
2023/12/15 04:57:48;;;;;;;33.27;8.20;;;6.00;99.90;;;;;;5041042;28;20161;-82
2023/12/15 05:00:14;;;;;;;39.73;9.63;;;6.00;99.90;;;;;;5041636;28;20172;-82
2023/12/15 05:02:40;;;;;;;37.53;8.77;;;6.00;99.90;;;;;;5023838;28;20174;-84
2023/12/15 05:05:07;;;;;;;33.10;8.80;;;5.90;99.90;;;;;;5022923;28;20479;-84
2023/12/15 05:07:33;;;;;;;36.03;9.32;;;6.00;99.90;;;;;;5041152;28;20168;-85
2023/12/15 05:09:59;;;;;;;40.77;9.50;;;6.00;99.90;;;;;;5041706;28;20621;-82
2023/12/15 05:12:24;;;;;;;33.30;7.97;;;6.00;99.90;;;;;;5023996;28;20212;-82
2023/12/15 05:14:50;;;;;;;33.23;8.60;;;6.00;99.90;;;;;;5040865;28;20181;-82
2023/12/15 05:17:17;;;;;;;37.30;8.80;;;5.90;99.90;;;;;;5041531;28;20166;-82
2023/12/15 05:19:43;;;;;;;35.90;9.02;;;6.00;99.90;;;;;;5042135;28;20524;-82
2023/12/15 05:22:08;;;;;;;38.10;9.13;;;6.00;99.90;;;;;;5041052;28;20166;-82
2023/12/15 05:24:38;;;;;;;36.70;9.80;;;5.90;99.90;;;;;;5043192;28;20729;-84
2023/12/15 05:27:04;;;;;;;36.80;9.82;;;5.90;99.90;;;;;;5041300;28;20169;-85
2023/12/15 05:29:34;;;;;;;33.53;8.03;;;5.90;99.90;;;;;;5040226;28;20197;-85
2023/12/15 05:32:10;;;;;;;35.00;9.55;;;5.90;99.90;;;;;;5039146;28;20412;-84
2023/12/15 05:34:39;;;;;;;35.60;8.73;;;6.00;99.90;;;;;;5018333;28;20185;-84
2023/12/15 05:37:05;;;;;;;35.08;8.45;;;6.00;99.90;;;;;;5035865;28;20532;-84
2023/12/15 05:39:30;;;;;;;35.27;9.07;;;6.00;99.90;;;;;;5039521;28;20166;-81
2023/12/15 05:41:59;;;;;;;34.13;8.87;;;5.90;99.90;;;;;;5040217;28;20428;-81
2023/12/15 05:44:24;;;;;;;35.40;9.40;;;6.00;99.90;;;;;;5022674;28;20200;-81
2023/12/15 05:46:50;;;;;;;34.60;8.83;;;6.00;99.90;;;;;;5039799;28;20166;-81
2023/12/15 05:49:16;;;;;;;37.53;8.90;;;6.00;99.90;;;;;;5039862;28;20239;-81
2023/12/15 05:51:50;;;;;;;37.57;9.17;;;6.00;99.90;;;;;;5039097;28;20166;-80
2023/12/15 05:54:16;;;;;;;33.30;8.15;;;5.90;99.90;;;;;;5039564;28;20236;-81
2023/12/15 05:56:42;;;;;;;42.53;10.40;;;5.90;99.90;;;;;;5041741;28;20196;-81
2023/12/15 05:59:08;;;;;;;36.08;9.68;;;6.00;99.90;;;;;;5023549;28;20182;-81
2023/12/15 06:01:34;;;;;;;38.93;9.10;;;5.90;99.90;;;;;;5041704;28;20204;-80
2023/12/15 06:03:59;;;;;;;33.77;9.03;;;6.00;99.90;;;;;;5041610;28;20191;-83
2023/12/15 06:06:28;;;;;;;34.47;8.50;;;6.00;99.90;;;;;;5042758;28;20408;-83
2023/12/15 06:08:53;;;;;;;35.47;8.43;;;6.00;99.90;;;;;;5023683;28;20197;-81
2023/12/15 06:11:19;;;;;;;35.77;8.80;;;6.00;99.90;;;;;;5042197;28;20578;-81
2023/12/15 06:13:45;;;;;;;37.07;10.00;;;6.00;99.90;;;;;;5024679;28;20297;-81
2023/12/15 06:16:20;;;;;;;38.53;10.13;;;6.00;99.90;;;;;;5024692;28;20579;-81
2023/12/15 06:18:47;;;;;;;36.17;8.38;;;6.00;99.90;;;;;;5042608;28;20169;-81
2023/12/15 06:21:23;;;;;;;35.13;9.00;;;6.00;99.90;;;;;;5024491;28;20169;-80
2023/12/15 06:23:49;;;;;;;35.05;8.10;;;6.00;99.90;;;;;;5043026;28;20305;-83
2023/12/15 06:26:21;;;;;;;34.67;8.97;;;6.00;99.90;;;;;;5043137;28;20686;-83
2023/12/15 06:28:47;;;;;;;34.58;8.57;;;6.00;99.90;;;;;;5043197;28;20482;-83
2023/12/15 06:31:14;;;;;;;37.38;10.70;;;6.00;99.90;;;;;;5024949;28;20178;-84
2023/12/15 06:33:39;;;;;;;33.00;8.02;;;6.10;99.90;;;;;;5040924;28;20169;-84
2023/12/15 06:36:09;;;;;;;34.03;7.70;;;6.10;99.90;;;;;;5041131;28;20168;-84
2023/12/15 06:38:42;;;;;;;34.03;8.57;;;6.10;99.90;;;;;;5041657;28;20188;-84
2023/12/15 06:41:09;;;;;;;39.90;8.77;;;6.10;99.90;;;;;;5041727;28;20154;-84
2023/12/15 06:43:42;;;;;;;38.20;8.90;;;6.10;99.90;;;;;;5022659;28;20670;-84
2023/12/15 06:46:08;;;;;;;46.92;9.27;;;6.10;99.90;;;;;;5041628;28;20165;-82
2023/12/15 06:48:35;;;;;;;38.88;9.15;;;6.20;99.90;;;;;;5040190;28;20213;-82
2023/12/15 06:51:05;;;;;;;33.88;8.65;;;6.20;99.90;;;;;;5040738;28;20681;-82
2023/12/15 06:53:30;;;;;;;37.28;9.70;;;6.20;99.90;;;;;;5038401;28;20162;-82
2023/12/15 06:55:58;;;;;;;38.70;9.60;;;6.20;99.90;;;;;;5021098;28;20732;-82
2023/12/15 06:58:24;;;;;;;33.40;8.27;;;6.30;99.90;;;;;;5020828;28;20170;-82
2023/12/15 07:00:50;;;;;;;35.17;8.70;;;6.30;99.90;;;;;;5038552;28;20181;-82
2023/12/15 07:03:16;;;;;;;37.47;9.27;;;6.40;99.90;;;;;;5037907;28;20405;-82
2023/12/15 07:05:42;;;;;;;34.10;8.90;;;6.50;99.90;;;;;;5038037;28;20689;-82
2023/12/15 07:08:10;;;;;;;37.00;9.57;;;6.50;99.90;;;;;;5037798;28;20184;-82
2023/12/15 07:10:36;;;;;;;33.63;8.45;;;6.60;99.90;;;;;;5020882;28;20498;-83
2023/12/15 07:13:01;;;;;;;37.83;9.20;;;6.60;99.90;;;;;;5040361;28;20515;-83
2023/12/15 07:15:28;;;;;;;34.00;8.87;;;6.60;99.90;;;;;;5021959;28;20193;-83
2023/12/15 07:17:57;;;;;;;37.13;9.25;;;6.70;99.90;;;;;;5021878;28;20715;-83
2023/12/15 07:20:24;;;;;;;35.38;8.50;;;6.60;99.90;;;;;;5040038;28;20253;-83
2023/12/15 07:22:50;;;;;;;34.55;8.95;;;6.60;99.90;;;;;;5039680;28;20162;-83
2023/12/15 07:28:59;;;;;;;34.72;8.75;;;6.70;99.90;;;;;;5038710;28;20193;-85
2023/12/15 07:35:23;;;;;;;;;;;;;;;;;;;;;
2023/12/15 07:38:05;;;;;;;34.00;9.25;;;6.70;99.90;;;;;;5038992;28;20260;-86
2023/12/15 07:40:30;;;;;;;35.38;8.75;;;6.70;99.90;;;;;;5039305;28;20160;-86
2023/12/15 07:42:56;;;;;;;37.53;10.23;;;6.80;99.90;;;;;;5021358;28;20170;-85
2023/12/15 07:45:22;;;;;;;40.90;9.30;;;6.80;99.90;;;;;;5021751;28;20189;-83
2023/12/15 07:47:47;;;;;;;39.10;11.03;;;6.80;99.90;;;;;;5039121;28;20227;-86
2023/12/15 07:50:45;;;;;;;;;;;;;;;;;;;;;
2023/12/15 07:54:18;;;;;;;38.10;11.52;;;6.80;99.90;;;;;;5037792;28;20241;-86
2023/12/15 08:06:19;;;;;;;37.15;11.30;;;6.90;99.90;;;;;;5115948;23;20228;-86
2023/12/15 08:08:46;;;;;;;46.97;11.98;;;6.90;99.90;;;;;;5040298;28;20197;-86
2023/12/15 08:11:13;;;;;;;38.95;10.98;;;6.90;99.90;;;;;;5040082;28;20187;-86
2023/12/15 08:13:40;;;;;;;41.22;12.90;;;7.00;99.90;;;;;;5058480;28;20185;-86
2023/12/15 08:16:07;;;;;;;42.28;11.40;;;7.00;99.90;;;;;;5058804;28;20173;-85
2023/12/15 08:18:33;;;;;;;38.55;12.10;;;7.00;99.90;;;;;;5057581;28;20177;-85
2023/12/15 08:20:59;;;;;;;42.50;12.60;;;7.00;99.90;;;;;;5057994;28;20538;-86
2023/12/15 08:23:25;;;;;;;40.13;10.85;;;7.00;99.90;;;;;;5040209;28;20668;-83
2023/12/15 08:25:51;;;;;;;42.95;11.60;;;7.00;99.90;;;;;;5058246;28;20239;-83
2023/12/15 08:28:18;;;;;;;40.40;11.37;;;7.10;99.90;;;;;;5057721;28;20339;-83
2023/12/15 08:30:44;;;;;;;47.80;13.90;;;7.10;99.90;;;;;;5058530;28;20399;-83
2023/12/15 08:33:10;;;;;;;44.60;12.65;;;7.10;99.90;;;;;;5039539;28;20165;-83
2023/12/15 08:35:35;;;;;;;48.73;13.07;;;7.10;99.90;;;;;;5058599;28;20676;-83
2023/12/15 08:38:01;;;;;;;46.70;13.30;;;7.20;99.90;;;;;;5059394;28;20219;-84
2023/12/15 08:40:30;;;;;;;45.17;13.93;;;7.20;99.90;;;;;;5058682;28;20254;-84
2023/12/15 08:42:55;;;;;;;45.08;14.50;;;7.30;99.90;;;;;;5058309;28;20161;-84
2023/12/15 08:45:21;;;;;;;47.33;15.50;;;7.30;99.90;;;;;;5040828;28;20634;-83
2023/12/15 08:47:48;;;;;;;44.77;14.73;;;7.40;99.90;;;;;;5058412;28;20177;-83
2023/12/15 08:50:14;;;;;;;51.50;16.20;;;7.40;99.90;;;;;;5040309;28;20169;-83
2023/12/15 08:52:40;;;;;;;49.35;15.68;;;7.50;99.90;;;;;;5058317;28;20200;-84
2023/12/15 08:55:06;;;;;;;47.83;16.35;;;7.50;99.90;;;;;;5039975;28;20195;-83
2023/12/15 08:57:32;;;;;;;49.78;15.48;;;7.50;99.90;;;;;;5040290;28;20172;-84
2023/12/15 08:59:58;;;;;;;49.30;16.50;;;7.60;99.90;;;;;;5040168;28;20241;-83
2023/12/15 09:02:25;;;;;;;45.73;15.20;;;7.60;99.90;;;;;;5040056;28;20223;-83
2023/12/15 09:04:51;;;;;;;49.72;16.17;;;7.60;99.90;;;;;;5057851;28;20443;-83
2023/12/15 09:07:17;;;;;;;52.47;16.37;;;7.70;99.90;;;;;;5057973;28;20248;-84
2023/12/15 09:09:43;;;;;;;57.50;17.33;;;7.70;99.90;;;;;;5058065;28;20443;-83
2023/12/15 09:12:18;;;;;;;55.75;16.83;;;7.70;99.90;;;;;;5058092;28;20522;-83
2023/12/15 09:14:47;;;;;;;50.97;16.70;;;7.70;99.90;;;;;;5064579;28;20188;-83
2023/12/15 09:17:13;;;;;;;52.10;16.90;;;7.80;99.90;;;;;;5046673;28;20169;-83
2023/12/15 09:19:40;;;;;;;50.30;16.27;;;7.80;99.90;;;;;;5065283;28;20161;-84
2023/12/15 09:22:06;;;;;;;61.88;16.58;;;7.90;99.90;;;;;;5064866;28;20172;-84
2023/12/15 09:24:33;;;;;;;52.77;16.77;;;7.90;99.90;;;;;;5064511;28;20550;-84
2023/12/15 09:26:59;;;;;;;48.72;16.52;;;7.90;99.90;;;;;;5047163;28;20415;-83
2023/12/15 09:29:25;;;;;;;53.88;17.63;;;7.90;99.90;;;;;;5064009;28;20212;-84
2023/12/15 09:31:51;;;;;;;54.93;17.40;;;8.00;99.90;;;;;;5046403;28;20161;-86
2023/12/15 09:34:18;;;;;;;49.20;16.30;;;8.00;99.90;;;;;;5064340;28;20435;-84
2023/12/15 09:36:48;;;;;;;52.55;16.83;;;8.00;99.90;;;;;;5064072;28;20178;-84
2023/12/15 09:39:16;;;;;;;61.22;18.08;;;8.00;99.90;;;;;;5046704;28;20173;-84
2023/12/15 09:41:42;;;;;;;64.65;18.08;;;8.00;99.90;;;;;;5066039;28;20179;-84
2023/12/15 09:44:11;;;;;;;48.00;16.03;;;8.00;99.90;;;;;;5064718;28;20662;-84
2023/12/15 09:46:38;;;;;;;50.97;16.83;;;8.00;99.90;;;;;;5065315;28;20267;-84
2023/12/15 09:49:04;;;;;;;59.80;17.80;;;8.10;99.90;;;;;;5064742;28;20250;-84
2023/12/15 09:51:32;;;;;;;48.65;15.85;;;8.00;99.90;;;;;;5065559;28;20187;-84
2023/12/15 09:54:35;;;;;;;;;;;;;;;;;;;;;
2023/12/15 09:57:02;;;;;;;56.88;18.50;;;8.00;99.90;;;;;;5064037;28;20220;-86
2023/12/15 09:59:31;;;;;;;50.63;16.30;;;8.00;99.90;;;;;;5064770;28;20195;-84
2023/12/15 10:01:57;;;;;;;48.42;15.23;;;8.00;99.90;;;;;;5047509;28;20523;-84
2023/12/15 10:04:22;;;;;;;58.30;19.00;;;8.10;99.90;;;;;;5064152;28;20192;-84
2023/12/15 10:06:48;;;;;;;53.37;17.47;;;8.00;99.90;;;;;;5046605;28;20579;-84
2023/12/15 10:09:14;;;;;;;48.87;16.67;;;8.10;99.90;;;;;;5064179;28;20192;-84
2023/12/15 10:11:43;;;;;;;52.33;17.20;;;8.10;99.90;;;;;;5046889;28;20180;-84
2023/12/15 10:14:08;;;;;;;51.97;16.08;;;8.20;99.90;;;;;;5045568;28;20200;-84
2023/12/15 10:16:36;;;;;;;48.27;15.33;;;8.30;99.90;;;;;;5063796;28;20295;-84
2023/12/15 10:19:04;;;;;;;48.67;16.88;;;8.30;99.90;;;;;;5046479;28;20541;-83
2023/12/15 10:21:34;;;;;;;47.25;17.52;;;8.40;99.90;;;;;;5064666;28;20169;-84
2023/12/15 10:24:20;;;;;;;54.28;16.40;;;8.40;99.90;;;;;;5063490;28;20204;-84
2023/12/15 10:26:49;;;;;;;47.70;15.38;;;8.40;99.90;;;;;;5060041;28;20188;-84
2023/12/15 10:29:19;;;;;;;53.92;17.85;;;8.50;99.90;;;;;;5061580;28;20189;-84
2023/12/15 10:31:45;;;;;;;46.95;15.88;;;8.50;99.90;;;;;;5044331;28;20164;-84
2023/12/15 10:34:10;;;;;;;48.30;15.07;;;8.50;99.90;;;;;;5043367;28;20662;-84
2023/12/15 10:36:40;;;;;;;52.33;13.90;;;8.60;99.90;;;;;;5061699;28;20404;-84
2023/12/15 10:39:06;;;;;;;47.72;14.85;;;8.60;99.90;;;;;;5042777;28;20232;-84
2023/12/15 10:41:34;;;;;;;44.45;13.75;;;8.60;99.90;;;;;;5060318;28;20173;-86
2023/12/15 10:44:03;;;;;;;51.08;16.15;;;8.60;99.90;;;;;;5042310;28;20227;-86
2023/12/15 10:46:29;;;;;;;48.00;14.63;;;8.60;99.90;;;;;;5060050;28;20198;-86
2023/12/15 10:48:59;;;;;;;46.67;14.45;;;8.70;99.90;;;;;;5042198;28;20729;-86
2023/12/15 10:51:26;;;;;;;50.00;15.65;;;8.60;99.90;;;;;;5042213;28;20534;-85
2023/12/15 10:53:56;;;;;;;47.30;14.27;;;8.60;99.90;;;;;;5042481;28;20169;-86
2023/12/15 10:56:23;;;;;;;46.45;13.07;;;8.70;99.90;;;;;;5041957;28;20157;-86
2023/12/15 10:58:49;;;;;;;54.03;15.30;;;8.70;99.90;;;;;;5059813;28;20257;-86
2023/12/15 11:01:16;;;;;;;51.17;15.57;;;8.70;99.90;;;;;;5060378;28;20165;-85
2023/12/15 11:03:48;;;;;;;43.08;13.85;;;8.80;99.90;;;;;;5041738;28;20176;-86
2023/12/15 11:06:36;;;;;;;48.95;15.13;;;8.80;99.90;;;;;;5059620;28;20650;-86
2023/12/15 11:09:05;;;;;;;48.35;15.18;;;8.80;99.90;;;;;;5041678;28;20192;-86
2023/12/15 11:11:31;;;;;;;45.70;13.30;;;8.90;99.90;;;;;;5059493;28;20627;-86
2023/12/15 11:14:06;;;;;;;41.13;14.55;;;8.90;99.90;;;;;;5041429;28;20195;-86
2023/12/15 11:16:37;;;;;;;45.47;13.38;;;8.90;99.90;;;;;;5060228;28;20152;-84
2023/12/15 11:19:05;;;;;;;52.75;14.00;;;8.90;99.90;;;;;;5041909;28;20169;-86
2023/12/15 11:21:31;;;;;;;50.35;16.27;;;8.90;99.90;;;;;;5059584;28;20244;-86
2023/12/15 11:23:58;;;;;;;43.90;14.63;;;8.90;99.90;;;;;;5059424;28;20599;-86
2023/12/15 11:26:33;;;;;;;45.65;15.15;;;8.90;99.90;;;;;;5041214;28;20642;-86
2023/12/15 11:29:07;;;;;;;41.13;12.55;;;8.90;99.90;;;;;;5059413;28;20196;-86
2023/12/15 11:31:36;;;;;;;47.05;14.60;;;9.00;99.90;;;;;;5041689;28;20165;-86
2023/12/15 11:34:03;;;;;;;61.63;16.40;;;9.00;99.90;;;;;;5042289;28;20189;-86
2023/12/15 11:36:42;;;;;;;48.28;13.68;;;9.10;99.90;;;;;;5042704;28;20168;-85
2023/12/15 11:39:14;;;;;;;47.95;15.00;;;9.10;99.90;;;;;;5042071;28;20172;-86
2023/12/15 11:41:42;;;;;;;53.95;15.15;;;9.00;99.90;;;;;;5061455;28;20154;-86
2023/12/15 11:44:08;;;;;;;45.58;13.38;;;9.00;99.90;;;;;;5043389;28;20612;-86
2023/12/15 11:46:34;;;;;;;47.27;12.87;;;9.00;99.90;;;;;;5060574;28;20188;-86
2023/12/15 11:49:00;;;;;;;47.00;15.40;;;9.10;99.90;;;;;;5060252;28;20215;-85
2023/12/15 11:51:28;;;;;;;50.17;14.02;;;9.10;99.90;;;;;;5060237;28;20646;-86
2023/12/15 11:53:55;;;;;;;51.78;14.98;;;9.20;99.90;;;;;;5042609;28;20712;-86
2023/12/15 11:56:21;;;;;;;57.92;14.15;;;9.20;99.90;;;;;;5059670;28;20508;-86
2023/12/15 11:58:49;;;;;;;46.80;14.77;;;9.20;99.90;;;;;;5060632;28;20215;-86
2023/12/15 12:01:17;;;;;;;47.67;14.30;;;9.20;99.90;;;;;;5042385;28;20170;-86
2023/12/15 12:03:43;;;;;;;56.05;14.95;;;9.30;99.90;;;;;;5059371;28;20646;-86
2023/12/15 12:06:09;;;;;;;50.20;14.87;;;9.30;99.90;;;;;;5059900;28;20220;-86
2023/12/15 12:08:36;;;;;;;48.35;14.45;;;9.30;99.90;;;;;;5059102;28;20685;-86
2023/12/15 12:11:04;;;;;;;45.40;13.85;;;9.30;99.90;;;;;;5059556;28;20165;-86
2023/12/15 12:13:32;;;;;;;42.40;13.63;;;9.30;99.90;;;;;;5059922;28;20622;-84
2023/12/15 12:15:58;;;;;;;44.85;13.90;;;9.30;99.90;;;;;;5041936;28;20185;-84
2023/12/15 12:18:25;;;;;;;43.83;15.23;;;9.30;99.90;;;;;;5040974;28;20235;-86
2023/12/15 12:20:56;;;;;;;47.80;13.30;;;9.30;99.90;;;;;;5060060;28;20165;-86
2023/12/15 12:23:29;;;;;;;52.85;15.02;;;9.30;99.90;;;;;;5040862;28;20234;-86
2023/12/15 12:26:00;;;;;;;46.50;14.48;;;9.30;99.90;;;;;;5059005;28;20250;-85
2023/12/15 12:28:37;;;;;;;49.95;14.48;;;9.30;99.90;;;;;;5058820;28;20185;-86
2023/12/15 12:31:03;;;;;;;48.22;15.70;;;9.30;99.90;;;;;;5059055;28;20590;-86
2023/12/15 12:33:39;;;;;;;50.00;13.73;;;9.30;99.90;;;;;;5041658;28;20165;-86
2023/12/15 12:36:08;;;;;;;47.33;13.50;;;9.30;99.90;;;;;;5041252;28;20800;-86
2023/12/15 12:38:36;;;;;;;46.60;12.60;;;9.30;99.90;;;;;;5059096;28;20169;-86
2023/12/15 12:41:06;;;;;;;43.45;13.27;;;9.40;99.90;;;;;;5058925;28;20649;-86
2023/12/15 12:43:35;;;;;;;39.80;13.15;;;9.30;99.90;;;;;;5059115;28;20259;-86
2023/12/15 12:46:01;;;;;;;43.38;13.45;;;9.40;99.90;;;;;;5058525;28;20176;-86
2023/12/15 12:48:29;;;;;;;43.10;13.57;;;9.40;99.90;;;;;;5057114;28;20189;-86
2023/12/15 12:50:58;;;;;;;38.95;12.60;;;9.40;99.90;;;;;;5042335;28;20165;-86
2023/12/15 12:53:27;;;;;;;50.60;15.63;;;9.40;99.90;;;;;;5059029;28;20166;-86
2023/12/15 12:55:53;;;;;;;44.65;14.07;;;9.40;99.90;;;;;;5058405;28;20188;-86
2023/12/15 12:58:18;;;;;;;41.83;13.47;;;9.50;99.90;;;;;;5059493;28;20614;-85
2023/12/15 13:00:53;;;;;;;42.57;12.90;;;9.50;99.90;;;;;;5042119;28;20937;-86